createdAt,value
2024-01-29T00:02:04.512Z,3.67
2024-01-29T00:05:06.639Z,4.20
2024-01-29T00:08:08.818Z,4.15
2024-01-29T00:11:12.499Z,4.20
2024-01-29T00:14:16.577Z,5.75
2024-01-29T00:17:19.140Z,5.22
2024-01-29T00:20:21.210Z,5.80
2024-01-29T00:23:23.392Z,5.72
2024-01-29T00:26:25.867Z,6.32
2024-01-29T00:29:28.005Z,6.22
2024-01-29T00:32:30.984Z,4.88
2024-01-29T00:35:33.138Z,5.20
2024-01-29T00:38:35.176Z,5.10
2024-01-29T00:41:37.490Z,4.27
2024-01-29T00:44:40.198Z,4.93
2024-01-29T00:47:42.385Z,5.13
2024-01-29T00:50:44.672Z,3.93
2024-01-29T00:53:48.412Z,5.38
2024-01-29T00:56:51.257Z,4.05
2024-01-29T00:59:53.790Z,4.65
2024-01-29T01:02:58.272Z,3.88
2024-01-29T01:06:00.441Z,3.70
2024-01-29T01:09:02.424Z,3.75
2024-01-29T01:12:05.011Z,5.07
2024-01-29T01:15:07.570Z,4.65
2024-01-29T01:18:11.481Z,5.20
2024-01-29T01:21:13.622Z,4.47
2024-01-29T01:24:17.217Z,5.03
2024-01-29T01:27:19.783Z,5.75
2024-01-29T01:30:22.601Z,5.68
2024-01-29T01:33:25.969Z,5.25
2024-01-29T01:36:28.337Z,5.05
2024-01-29T01:39:30.352Z,5.55
2024-01-29T01:42:32.580Z,5.53
2024-01-29T01:45:35.724Z,4.90
2024-01-29T01:48:38.021Z,5.90
2024-01-29T01:51:40.901Z,5.80
2024-01-29T01:54:43.865Z,5.95
2024-01-29T01:57:46.542Z,6.20
2024-01-29T02:00:49.234Z,5.75
2024-01-29T02:03:51.831Z,6.38
2024-01-29T02:06:54.361Z,6.53
2024-01-29T02:09:57.687Z,7.35
2024-01-29T02:13:04.042Z,5.63
2024-01-29T02:16:07.761Z,7.13
2024-01-29T02:19:15.664Z,5.22
2024-01-29T02:22:19.590Z,5.40
2024-01-29T02:25:22.075Z,6.50
2024-01-29T02:28:26.145Z,7.63
2024-01-29T02:31:28.609Z,6.57
2024-01-29T02:34:31.848Z,5.47
2024-01-29T02:37:34.394Z,6.57
2024-01-29T02:40:37.169Z,6.53
2024-01-29T02:43:39.201Z,5.70
2024-01-29T02:46:41.858Z,7.53
2024-01-29T02:49:47.214Z,7.07
2024-01-29T02:52:49.863Z,7.40
2024-01-29T02:55:52.354Z,6.78
2024-01-29T02:58:54.476Z,7.93
2024-01-29T03:01:57.563Z,7.50
2024-01-29T03:05:00.770Z,7.93
2024-01-29T03:08:03.144Z,7.65
2024-01-29T03:11:05.192Z,8.50
2024-01-29T03:14:07.312Z,6.83
2024-01-29T03:17:13.054Z,6.93
2024-01-29T03:20:15.643Z,6.70
2024-01-29T03:23:17.708Z,7.07
2024-01-29T03:26:19.865Z,7.03
2024-01-29T03:29:21.856Z,6.35
2024-01-29T03:32:24.316Z,6.55
2024-01-29T03:35:27.181Z,7.32
2024-01-29T03:38:29.234Z,6.60
2024-01-29T03:41:33.189Z,6.00
2024-01-29T03:44:37.311Z,6.17
2024-01-29T03:47:40.124Z,6.60
2024-01-29T03:50:42.256Z,6.10
2024-01-29T03:53:44.451Z,6.10
2024-01-29T03:56:47.695Z,6.15
2024-01-29T03:59:50.185Z,6.47
2024-01-29T04:02:52.444Z,6.18
2024-01-29T04:05:54.668Z,5.43
2024-01-29T04:08:57.179Z,6.13
2024-01-29T04:11:59.287Z,5.43
2024-01-29T04:15:01.338Z,5.00
2024-01-29T04:18:03.586Z,6.78
2024-01-29T04:21:06.420Z,5.05
2024-01-29T04:24:08.515Z,5.77
2024-01-29T04:27:10.661Z,6.05
2024-01-29T04:30:13.314Z,5.20
2024-01-29T04:33:16.096Z,5.38
2024-01-29T04:36:18.623Z,4.45
2024-01-29T04:39:20.636Z,4.65
2024-01-29T04:42:22.774Z,6.10
2024-01-29T04:45:24.923Z,4.77
2024-01-29T04:48:27.112Z,5.05
2024-01-29T04:51:29.748Z,5.43
2024-01-29T04:54:32.031Z,4.27
2024-01-29T04:57:35.157Z,5.57
2024-01-29T05:00:37.323Z,6.88
2024-01-29T05:03:40.036Z,7.43
2024-01-29T05:06:42.199Z,6.47
2024-01-29T05:09:44.335Z,5.22
2024-01-29T05:12:46.557Z,5.47
2024-01-29T05:15:48.684Z,5.30
2024-01-29T05:18:51.329Z,5.30
2024-01-29T05:21:54.081Z,5.53
2024-01-29T05:24:56.215Z,5.37
2024-01-29T05:27:58.971Z,4.28
2024-01-29T05:31:01.303Z,4.82
2024-01-29T05:34:06.757Z,4.97
2024-01-29T05:37:09.026Z,5.65
2024-01-29T05:40:13.231Z,6.05
2024-01-29T05:43:16.150Z,6.25
2024-01-29T05:46:18.318Z,5.37
2024-01-29T05:49:20.520Z,5.60
2024-01-29T05:52:24.168Z,6.00
2024-01-29T05:55:26.286Z,6.83
2024-01-29T05:58:31.919Z,6.07
2024-01-29T06:01:35.431Z,5.72
2024-01-29T06:04:37.548Z,5.82
2024-01-29T06:07:40.305Z,5.57
2024-01-29T06:10:42.614Z,7.05
2024-01-29T06:13:45.099Z,6.13
2024-01-29T06:16:48.901Z,5.10
2024-01-29T06:20:03.712Z,5.68
2024-01-29T06:23:13.447Z,5.68
2024-01-29T06:26:16.094Z,6.53
2024-01-29T06:29:18.151Z,7.05
2024-01-29T06:32:20.359Z,7.80
2024-01-29T06:35:24.999Z,8.25
2024-01-29T06:38:28.177Z,8.93
2024-01-29T06:41:30.827Z,9.23
2024-01-29T06:44:33.359Z,8.68
2024-01-29T06:47:35.718Z,7.70
2024-01-29T06:50:40.314Z,7.32
2024-01-29T06:53:42.491Z,6.28
2024-01-29T06:56:44.440Z,6.43
2024-01-29T06:59:46.872Z,7.07
2024-01-29T07:02:50.142Z,6.97
2024-01-29T07:05:52.352Z,6.68
2024-01-29T07:08:55.531Z,7.80
2024-01-29T07:11:59.322Z,7.32
2024-01-29T07:15:02.757Z,7.88
2024-01-29T07:18:05.598Z,7.27
2024-01-29T07:21:10.064Z,7.72
2024-01-29T07:24:12.463Z,8.23
2024-01-29T07:27:14.693Z,8.43
2024-01-29T07:30:17.971Z,9.25
2024-01-29T07:33:20.646Z,7.25
2024-01-29T07:36:24.575Z,7.40
2024-01-29T07:39:27.142Z,7.78
2024-01-29T07:42:29.975Z,9.82
2024-01-29T07:45:32.043Z,11.32
2024-01-29T07:48:34.332Z,10.87
2024-01-29T07:51:36.519Z,11.43
2024-01-29T07:54:38.708Z,9.95
2024-01-29T07:57:40.874Z,8.00
2024-01-29T08:00:43.735Z,8.02
2024-01-29T08:03:46.579Z,7.97
2024-01-29T08:06:48.991Z,7.47
2024-01-29T08:09:51.441Z,8.45
2024-01-29T08:12:54.306Z,6.78
2024-01-29T08:16:00.344Z,6.65
2024-01-29T08:19:03.666Z,7.63
2024-01-29T08:22:06.220Z,8.70
2024-01-29T08:25:08.842Z,8.38
2024-01-29T08:28:12.686Z,8.77
2024-01-29T08:31:14.870Z,9.10
2024-01-29T08:34:17.067Z,9.43
2024-01-29T08:37:19.526Z,9.82
2024-01-29T08:40:21.912Z,9.45
2024-01-29T08:43:25.131Z,10.38
2024-01-29T08:46:30.729Z,8.38
2024-01-29T08:49:36.244Z,8.63
2024-01-29T08:52:40.217Z,8.63
2024-01-29T08:55:42.351Z,7.82
2024-01-29T08:58:45.208Z,6.63
2024-01-29T09:01:47.981Z,4.60
2024-01-29T09:04:50.639Z,5.65
2024-01-29T09:07:52.960Z,5.88
2024-01-29T09:10:55.111Z,5.75
2024-01-29T09:13:57.395Z,4.05
2024-01-29T09:17:00.273Z,5.88
2024-01-29T09:20:06.214Z,5.40
2024-01-29T09:23:26.410Z,5.30
2024-01-29T09:26:31.069Z,6.35
2024-01-29T09:29:33.473Z,5.33
2024-01-29T09:32:36.055Z,5.43
2024-01-29T09:35:38.184Z,4.97
2024-01-29T09:38:40.535Z,5.15
2024-01-29T09:42:10.067Z,4.43
2024-01-29T09:45:13.199Z,5.18
2024-01-29T09:48:16.057Z,5.45
2024-01-29T09:51:18.315Z,6.33
2024-01-29T09:54:28.350Z,4.85
2024-01-29T09:57:45.136Z,3.72
2024-01-29T10:00:52.722Z,3.83
2024-01-29T10:03:55.844Z,3.60
2024-01-29T10:06:58.390Z,4.85
2024-01-29T10:10:03.520Z,3.72
2024-01-29T10:13:06.777Z,3.00
2024-01-29T10:16:09.816Z,4.93
2024-01-29T10:19:14.137Z,3.20
2024-01-29T10:22:17.624Z,2.97
2024-01-29T10:25:20.548Z,3.35
2024-01-29T10:28:24.887Z,4.07
2024-01-29T10:31:27.364Z,2.80
2024-01-29T10:34:30.006Z,4.00
2024-01-29T10:37:32.075Z,4.05
2024-01-29T10:40:34.485Z,4.95
2024-01-29T10:43:37.761Z,3.40
2024-01-29T10:46:39.873Z,3.72
2024-01-29T10:49:44.485Z,3.72
2024-01-29T10:52:49.587Z,3.50
2024-01-29T10:55:53.244Z,3.65
2024-01-29T10:59:02.425Z,3.55
2024-01-29T11:02:06.042Z,3.72
2024-01-29T11:05:08.618Z,3.50
2024-01-29T11:08:18.211Z,3.65
2024-01-29T11:11:20.297Z,3.58
2024-01-29T11:14:25.458Z,4.20
2024-01-29T11:17:28.330Z,4.75
2024-01-29T11:20:33.551Z,5.07
2024-01-29T11:23:40.917Z,5.00
2024-01-29T11:26:43.663Z,5.70
2024-01-29T11:29:46.326Z,5.47
2024-01-29T11:32:48.772Z,5.20
2024-01-29T11:35:56.827Z,5.13
2024-01-29T11:39:05.641Z,5.90
2024-01-29T11:42:08.299Z,5.20
2024-01-29T11:45:10.448Z,6.00
2024-01-29T11:48:13.196Z,4.60
2024-01-29T11:51:16.581Z,5.07
2024-01-29T11:54:18.981Z,4.60
2024-01-29T11:57:21.503Z,4.78
2024-01-29T12:00:24.078Z,4.70
2024-01-29T12:03:28.805Z,4.97
2024-01-29T12:06:33.674Z,4.30
2024-01-29T12:09:37.655Z,5.60
2024-01-29T12:12:39.782Z,5.13
2024-01-29T12:15:42.519Z,5.50
2024-01-29T12:18:51.508Z,5.00
2024-01-29T12:21:53.899Z,5.75
2024-01-29T12:24:58.071Z,5.25
2024-01-29T12:28:04.350Z,5.32
2024-01-29T12:31:09.334Z,6.40
2024-01-29T12:34:19.761Z,5.95
2024-01-29T12:37:23.696Z,5.97
2024-01-29T12:40:26.004Z,6.13
2024-01-29T12:43:29.162Z,5.72
2024-01-29T12:46:31.393Z,5.70
2024-01-29T12:49:36.136Z,5.43
2024-01-29T12:52:38.350Z,5.88
2024-01-29T12:55:40.929Z,6.13
2024-01-29T12:58:43.432Z,5.50
2024-01-29T13:01:46.033Z,6.53
2024-01-29T13:04:49.775Z,5.88
2024-01-29T13:07:53.139Z,5.18
2024-01-29T13:10:55.567Z,5.87
2024-01-29T13:14:00.868Z,6.30
2024-01-29T13:17:04.252Z,5.45
2024-01-29T13:20:12.015Z,5.50
2024-01-29T13:23:14.516Z,6.75
2024-01-29T13:26:19.531Z,5.93
2024-01-29T13:29:21.814Z,6.05
2024-01-29T13:32:24.403Z,5.63
2024-01-29T13:35:26.724Z,6.28
2024-01-29T13:38:30.307Z,6.90
2024-01-29T13:41:35.151Z,5.57
2024-01-29T13:44:37.629Z,5.75
2024-01-29T13:47:42.434Z,6.13
2024-01-29T13:50:45.166Z,6.30
2024-01-29T13:53:48.357Z,5.37
2024-01-29T13:56:52.249Z,5.83
2024-01-29T13:59:59.370Z,5.70
2024-01-29T14:03:05.886Z,5.90
2024-01-29T14:06:10.260Z,6.03
2024-01-29T14:09:12.882Z,6.07
2024-01-29T14:12:16.876Z,4.97
2024-01-29T14:15:19.892Z,5.70
2024-01-29T14:18:23.310Z,5.55
2024-01-29T14:21:25.361Z,5.40
2024-01-29T14:24:27.760Z,5.67
2024-01-29T14:27:30.114Z,4.80
2024-01-29T14:30:32.850Z,4.72
2024-01-29T14:33:35.330Z,4.30
2024-01-29T14:36:37.600Z,4.97
2024-01-29T14:39:40.056Z,4.93
2024-01-29T14:42:42.178Z,4.40
2024-01-29T14:45:44.562Z,3.83
2024-01-29T14:48:58.583Z,4.55
2024-01-29T14:52:05.857Z,4.32
2024-01-29T14:55:17.348Z,5.00
2024-01-29T14:58:26.305Z,4.95
2024-01-29T15:01:28.557Z,4.07
2024-01-29T15:04:30.915Z,5.93
2024-01-29T15:07:36.334Z,5.13
2024-01-29T15:10:40.031Z,5.55
2024-01-29T15:13:42.036Z,4.63
2024-01-29T15:16:44.241Z,4.60
2024-01-29T15:19:46.489Z,5.03
2024-01-29T15:22:48.581Z,4.75
2024-01-29T15:25:51.313Z,4.70
2024-01-29T15:28:53.912Z,4.38
2024-01-29T15:31:56.030Z,4.95
2024-01-29T15:34:58.792Z,6.75
2024-01-29T15:38:00.954Z,8.23
2024-01-29T15:41:03.748Z,9.13
2024-01-29T15:44:05.824Z,8.60
2024-01-29T15:47:08.658Z,8.40
2024-01-29T15:50:11.708Z,7.90
2024-01-29T15:53:14.538Z,5.80
2024-01-29T15:56:19.130Z,6.82
2024-01-29T15:59:22.142Z,15.05
2024-01-29T16:02:24.173Z,12.88
2024-01-29T16:05:26.408Z,11.32
2024-01-29T16:08:28.707Z,11.87
2024-01-29T16:11:32.135Z,13.43
2024-01-29T16:14:34.253Z,12.45
2024-01-29T16:17:36.606Z,12.17
2024-01-29T16:20:42.536Z,16.10
2024-01-29T16:23:44.839Z,14.02
2024-01-29T16:26:49.883Z,13.20
2024-01-29T16:29:55.905Z,15.13
2024-01-29T16:32:58.408Z,13.05
2024-01-29T16:36:00.511Z,12.65
2024-01-29T16:39:02.870Z,11.73
2024-01-29T16:42:05.254Z,12.32
2024-01-29T16:45:07.854Z,12.32
2024-01-29T16:48:10.650Z,11.80
2024-01-29T16:51:20.778Z,10.60
2024-01-29T16:54:23.054Z,12.48
2024-01-29T16:57:25.872Z,13.07
2024-01-29T17:00:29.197Z,12.77
2024-01-29T17:03:31.749Z,12.40
2024-01-29T17:06:35.334Z,12.10
2024-01-29T17:09:38.468Z,11.27
2024-01-29T17:12:40.557Z,10.55
2024-01-29T17:15:43.115Z,10.35
2024-01-29T17:18:48.601Z,10.83
2024-01-29T17:21:52.201Z,11.65
2024-01-29T17:24:54.508Z,13.02
2024-01-29T17:27:57.173Z,15.02
2024-01-29T17:31:02.318Z,16.00
2024-01-29T17:34:04.785Z,28.75
2024-01-29T17:37:07.353Z,62.97
2024-01-29T17:40:09.737Z,62.63
2024-01-29T17:43:14.438Z,43.17
2024-01-29T17:46:17.348Z,37.03
2024-01-29T17:49:19.686Z,23.37
2024-01-29T17:52:23.098Z,22.05
2024-01-29T17:55:25.465Z,28.60
2024-01-29T17:58:28.549Z,27.27
2024-01-29T18:01:30.849Z,28.30
2024-01-29T18:04:32.976Z,32.75
2024-01-29T18:07:35.205Z,25.45
2024-01-29T18:10:38.246Z,19.07
2024-01-29T18:13:41.504Z,18.92
2024-01-29T18:16:52.911Z,22.10
2024-01-29T18:19:58.915Z,25.20
2024-01-29T18:23:04.440Z,22.20
2024-01-29T18:26:06.543Z,21.73
2024-01-29T18:29:14.820Z,19.45
2024-01-29T18:32:17.726Z,19.35
2024-01-29T18:35:21.248Z,23.85
2024-01-29T18:38:23.323Z,19.02
2024-01-29T18:41:25.697Z,19.80
2024-01-29T18:44:31.177Z,17.00
2024-01-29T18:47:33.372Z,18.30
2024-01-29T18:50:35.810Z,18.60
2024-01-29T18:53:38.061Z,20.63
2024-01-29T18:56:40.219Z,17.77
2024-01-29T18:59:42.720Z,18.13
2024-01-29T19:02:45.038Z,17.05
2024-01-29T19:05:47.933Z,17.40
2024-01-29T19:08:50.142Z,18.58
2024-01-29T19:11:53.574Z,18.80
2024-01-29T19:14:55.701Z,16.17
2024-01-29T19:17:57.897Z,16.75
2024-01-29T19:21:00.041Z,17.83
2024-01-29T19:24:03.452Z,21.55
2024-01-29T19:27:07.717Z,26.02
2024-01-29T19:30:11.438Z,27.10
2024-01-29T19:33:14.976Z,28.73
2024-01-29T19:36:18.029Z,22.63
2024-01-29T19:39:20.580Z,16.05
2024-01-29T19:42:22.793Z,15.10
2024-01-29T19:45:24.908Z,13.45
2024-01-29T19:48:27.037Z,17.13
2024-01-29T19:51:30.345Z,17.63
2024-01-29T19:54:32.478Z,18.88
2024-01-29T19:57:38.134Z,20.50
2024-01-29T20:00:40.269Z,17.40
2024-01-29T20:03:44.986Z,16.50
2024-01-29T20:06:47.139Z,16.48
2024-01-29T20:09:49.652Z,17.98
2024-01-29T20:12:51.984Z,17.43
2024-01-29T20:15:58.782Z,18.27
2024-01-29T20:19:04.702Z,17.85
2024-01-29T20:22:07.431Z,19.57
2024-01-29T20:25:10.101Z,20.95
2024-01-29T20:28:12.357Z,21.33
2024-01-29T20:31:24.348Z,21.65
2024-01-29T20:34:26.661Z,22.65
2024-01-29T20:37:29.368Z,20.48
2024-01-29T20:40:32.238Z,20.25
2024-01-29T20:43:34.343Z,22.73
2024-01-29T20:46:42.905Z,23.67
2024-01-29T20:49:45.963Z,22.58
2024-01-29T20:52:49.787Z,19.83
2024-01-29T20:55:52.083Z,19.48
2024-01-29T20:58:55.190Z,19.08
2024-01-29T21:01:57.483Z,16.50
2024-01-29T21:05:01.872Z,17.30
2024-01-29T21:08:08.598Z,17.35
2024-01-29T21:11:15.194Z,15.43
2024-01-29T21:14:17.253Z,15.70
2024-01-29T21:17:19.809Z,15.23
2024-01-29T21:20:22.287Z,16.10
2024-01-29T21:23:24.785Z,17.97
2024-01-29T21:26:27.240Z,18.60
2024-01-29T21:29:29.519Z,17.17
2024-01-29T21:32:32.444Z,22.23
2024-01-29T21:35:34.545Z,19.00
2024-01-29T21:38:37.624Z,18.65
2024-01-29T21:41:39.785Z,16.55
2024-01-29T21:44:41.844Z,15.07
2024-01-29T21:47:43.962Z,14.13
2024-01-29T21:50:47.453Z,13.63
2024-01-29T21:53:49.588Z,12.80
2024-01-29T21:56:52.759Z,14.00
2024-01-29T21:59:57.282Z,15.10
2024-01-29T22:03:00.933Z,14.70
2024-01-29T22:06:03.415Z,13.38
2024-01-29T22:09:07.306Z,14.02
2024-01-29T22:12:09.899Z,14.82
2024-01-29T22:15:12.002Z,14.20
2024-01-29T22:18:14.164Z,16.98
2024-01-29T22:21:16.756Z,13.95
2024-01-29T22:24:19.263Z,15.13
2024-01-29T22:27:21.340Z,12.90
2024-01-29T22:30:25.071Z,15.02
2024-01-29T22:33:27.571Z,12.65
2024-01-29T22:36:30.069Z,11.07
2024-01-29T22:39:32.301Z,11.32
2024-01-29T22:42:35.246Z,11.27
2024-01-29T22:45:37.429Z,10.37
2024-01-29T22:48:40.814Z,11.48
2024-01-29T22:51:44.661Z,10.93
2024-01-29T22:54:47.377Z,10.87
2024-01-29T22:57:49.955Z,9.57
2024-01-29T23:00:54.604Z,11.48
2024-01-29T23:03:57.961Z,9.52
2024-01-29T23:07:00.058Z,9.57
2024-01-29T23:10:02.343Z,9.60
2024-01-29T23:13:04.852Z,11.48
2024-01-29T23:16:10.622Z,9.93
2024-01-29T23:19:12.784Z,9.75
2024-01-29T23:22:14.946Z,9.48
2024-01-29T23:25:17.306Z,9.27
2024-01-29T23:28:21.346Z,8.65
2024-01-29T23:31:23.619Z,8.25
2024-01-29T23:34:25.760Z,9.20
2024-01-29T23:37:30.550Z,9.80
2024-01-29T23:40:32.668Z,9.20
2024-01-29T23:43:35.113Z,8.63
2024-01-29T23:46:37.578Z,10.97
2024-01-29T23:49:39.746Z,10.45
2024-01-29T23:52:42.352Z,10.48
2024-01-29T23:55:44.845Z,9.07
2024-01-29T23:58:46.903Z,8.65
